Terminal Aerodrome Forecast
Issued by NWS Buffalo, NY

Home | Current Version | Previous Version | Text Only | Print | Product List | Glossary On
Versions: 1 2 3 4 5 6 7 8 9 10 11 12 13 14 15 16 17 18 19 20 21 22 23 24 25 26 27 28 29 30 31 32 33 34 35
000
FTUS41 KBUF 282300 RRA
TAFBUF
TAF
KBUF 282347Z 2900/2924 24004KT P6SM VCSH BKN040 OVC080
      TEMPO 2900/2904 4SM -SHSN BKN025
     FM290400 19007KT P6SM BKN035 BKN060
     FM291400 18008KT 4SM -SHSN BKN040 OVC050
     FM291800 17007KT P6SM VCSH BKN050 OVC060=

USA.gov is the U.S. government's official web portal to all federal, state and local government web resources and services.